createdAt,value
2023-02-16T00:01:25.803Z,60.76
2023-02-16T00:03:55.809Z,60.58
2023-02-16T00:06:24.730Z,60.03
2023-02-16T00:08:56.600Z,59.77
2023-02-16T00:11:49.794Z,59.75
2023-02-16T00:14:18.687Z,59.48
2023-02-16T00:16:48.060Z,59.84
2023-02-16T00:19:22.455Z,58.74
2023-02-16T00:21:52.850Z,59.82
2023-02-16T00:24:21.482Z,59.12
2023-02-16T00:26:50.443Z,59.25
2023-02-16T00:29:23.757Z,59.02
2023-02-16T00:31:53.997Z,59.13
2023-02-16T00:34:29.514Z,58.89
2023-02-16T00:37:00.286Z,59.07
2023-02-16T00:39:29.432Z,59.27
2023-02-16T00:42:02.206Z,59.30
2023-02-16T00:44:37.117Z,60.05
2023-02-16T00:47:19.394Z,59.18
2023-02-16T00:49:48.180Z,59.00
2023-02-16T00:52:35.444Z,59.04
2023-02-16T00:55:07.582Z,59.05
2023-02-16T00:57:41.133Z,58.54
2023-02-16T01:00:17.928Z,59.47
2023-02-16T01:02:50.491Z,59.75
2023-02-16T01:05:21.440Z,59.05
2023-02-16T01:08:07.636Z,59.28
2023-02-16T01:10:55.691Z,59.33
2023-02-16T01:13:24.807Z,58.94
2023-02-16T01:15:53.041Z,59.59
2023-02-16T01:18:23.442Z,59.30
2023-02-16T01:20:52.889Z,58.41
2023-02-16T01:23:21.050Z,59.10
2023-02-16T01:25:49.115Z,59.17
2023-02-16T01:28:24.554Z,59.31
2023-02-16T01:30:54.394Z,59.30
2023-02-16T01:33:24.678Z,59.21
2023-02-16T01:35:54.781Z,60.21
2023-02-16T01:38:26.632Z,59.08
2023-02-16T01:41:22.538Z,58.87
2023-02-16T01:43:56.203Z,58.65
2023-02-16T01:46:40.034Z,59.02
2023-02-16T01:49:14.244Z,60.33
2023-02-16T01:51:52.851Z,59.88
2023-02-16T01:54:36.002Z,59.97
2023-02-16T01:57:12.011Z,60.29
2023-02-16T02:00:12.644Z,59.87
2023-02-16T02:02:50.486Z,59.93
2023-02-16T02:05:37.161Z,59.92
2023-02-16T02:08:21.229Z,60.48
2023-02-16T02:11:04.167Z,60.47
2023-02-16T02:13:42.285Z,59.40
2023-02-16T02:16:12.607Z,60.13
2023-02-16T02:18:40.719Z,59.51
2023-02-16T02:21:56.226Z,59.45
2023-02-16T02:25:12.762Z,60.15
2023-02-16T02:27:45.743Z,59.76
2023-02-16T02:30:33.346Z,59.81
2023-02-16T02:33:33.935Z,59.90
2023-02-16T02:36:19.976Z,59.05
2023-02-16T02:39:05.223Z,59.61
2023-02-16T02:41:58.900Z,59.63
2023-02-16T02:44:30.816Z,59.82
2023-02-16T02:46:59.148Z,59.37
2023-02-16T02:49:27.354Z,59.66
2023-02-16T02:51:55.715Z,59.91
2023-02-16T02:54:47.182Z,59.49
2023-02-16T02:57:40.064Z,58.09
2023-02-16T03:00:36.813Z,59.47
2023-02-16T03:03:10.045Z,58.93
2023-02-16T03:05:42.375Z,59.24
2023-02-16T03:08:15.351Z,59.73
2023-02-16T03:11:07.960Z,60.06
2023-02-16T03:13:39.854Z,60.36
2023-02-16T03:16:17.591Z,60.42
2023-02-16T03:19:05.279Z,59.68
2023-02-16T03:21:53.156Z,58.71
2023-02-16T03:24:45.030Z,58.96
2023-02-16T03:27:34.295Z,59.25
2023-02-16T03:30:04.967Z,59.47
2023-02-16T03:32:35.036Z,58.69
2023-02-16T03:35:03.666Z,59.07
2023-02-16T03:37:32.719Z,59.52
2023-02-16T03:40:18.277Z,59.40
2023-02-16T03:42:50.886Z,59.59
2023-02-16T03:45:19.803Z,59.61
2023-02-16T03:47:49.232Z,59.51
2023-02-16T03:50:17.532Z,60.10
2023-02-16T03:52:45.603Z,61.51
2023-02-16T03:55:14.185Z,60.83
2023-02-16T03:57:42.272Z,60.28
2023-02-16T04:00:12.047Z,60.04
2023-02-16T04:02:42.595Z,60.31
2023-02-16T04:05:11.986Z,59.63
2023-02-16T04:07:40.036Z,60.05
2023-02-16T04:10:08.698Z,59.51
2023-02-16T04:12:39.725Z,58.67
2023-02-16T04:15:10.992Z,58.72
2023-02-16T04:17:39.216Z,59.05
2023-02-16T04:20:09.595Z,58.81
2023-02-16T04:22:39.000Z,60.00
2023-02-16T04:25:08.539Z,59.30
2023-02-16T04:27:38.070Z,59.62
2023-02-16T04:30:08.715Z,59.70
2023-02-16T04:32:36.808Z,60.05
2023-02-16T04:35:05.874Z,61.22
2023-02-16T04:37:34.328Z,60.07
2023-02-16T04:40:04.088Z,59.76
2023-02-16T04:42:32.109Z,59.82
2023-02-16T04:45:00.381Z,58.94
2023-02-16T04:47:28.736Z,59.14
2023-02-16T04:49:56.894Z,58.77
2023-02-16T04:52:25.057Z,58.97
2023-02-16T04:54:53.105Z,58.53
2023-02-16T04:57:24.126Z,58.51
2023-02-16T04:59:52.159Z,59.56
2023-02-16T05:02:20.220Z,58.82
2023-02-16T05:04:48.300Z,58.78
2023-02-16T05:07:16.432Z,59.83
2023-02-16T05:09:45.149Z,60.04
2023-02-16T05:12:30.702Z,60.38
2023-02-16T05:15:00.143Z,59.26
2023-02-16T05:17:28.698Z,60.56
2023-02-16T05:19:59.220Z,60.55
2023-02-16T05:22:32.307Z,59.85
2023-02-16T05:25:00.315Z,59.55
2023-02-16T05:27:31.115Z,59.55
2023-02-16T05:30:00.762Z,59.94
2023-02-16T05:32:28.953Z,59.50
2023-02-16T05:34:57.103Z,58.79
2023-02-16T05:37:25.241Z,60.00
2023-02-16T05:39:53.771Z,59.76
2023-02-16T05:42:21.882Z,59.99
2023-02-16T05:44:50.459Z,59.33
2023-02-16T05:47:19.957Z,58.85
2023-02-16T05:49:48.006Z,58.73
2023-02-16T05:52:16.051Z,59.52
2023-02-16T05:54:44.091Z,59.13
2023-02-16T05:57:12.111Z,59.88
2023-02-16T05:59:40.169Z,59.45
2023-02-16T06:02:09.774Z,58.87
2023-02-16T06:04:39.185Z,59.01
2023-02-16T06:07:07.247Z,58.50
2023-02-16T06:09:35.338Z,59.14
2023-02-16T06:12:03.449Z,60.17
2023-02-16T06:14:31.624Z,59.79
2023-02-16T06:17:01.561Z,60.13
2023-02-16T06:19:29.606Z,60.00
2023-02-16T06:21:59.005Z,59.41
2023-02-16T06:24:27.265Z,59.59
2023-02-16T06:26:55.328Z,59.92
2023-02-16T06:29:23.608Z,60.20
2023-02-16T06:31:51.745Z,59.57
2023-02-16T06:34:19.923Z,59.41
2023-02-16T06:36:47.946Z,59.78
2023-02-16T06:39:17.327Z,59.47
2023-02-16T06:41:45.358Z,59.10
2023-02-16T06:44:16.643Z,59.09
2023-02-16T06:46:46.586Z,58.93
2023-02-16T06:49:17.947Z,58.82
2023-02-16T06:51:47.148Z,58.57
2023-02-16T06:54:17.201Z,59.30
2023-02-16T06:56:45.309Z,58.54
2023-02-16T06:59:14.076Z,59.43
2023-02-16T07:01:44.245Z,58.90
2023-02-16T07:04:13.647Z,59.42
2023-02-16T07:06:41.692Z,59.70
2023-02-16T07:09:11.625Z,59.54
2023-02-16T07:11:42.403Z,59.40
2023-02-16T07:14:10.609Z,60.21
2023-02-16T07:16:38.836Z,60.77
2023-02-16T07:19:07.048Z,60.35
2023-02-16T07:21:35.274Z,60.58
2023-02-16T07:24:03.558Z,60.44
2023-02-16T07:26:31.737Z,60.31
2023-02-16T07:29:01.151Z,60.92
2023-02-16T07:31:29.237Z,61.75
2023-02-16T07:33:57.312Z,60.34
2023-02-16T07:36:25.420Z,60.37
2023-02-16T07:38:54.931Z,59.58
2023-02-16T07:41:23.366Z,60.68
2023-02-16T07:43:51.372Z,60.38
2023-02-16T07:46:20.818Z,60.24
2023-02-16T07:48:49.643Z,60.66
2023-02-16T07:51:23.093Z,59.11
2023-02-16T07:53:51.252Z,59.94
2023-02-16T07:56:22.020Z,60.42
2023-02-16T07:58:52.202Z,59.37
2023-02-16T08:01:22.483Z,60.14
2023-02-16T08:03:51.056Z,59.23
2023-02-16T08:06:20.010Z,58.55
2023-02-16T08:08:48.343Z,58.63
2023-02-16T08:11:19.399Z,57.57
2023-02-16T08:13:48.334Z,57.94
2023-02-16T08:16:20.117Z,56.96
2023-02-16T08:18:50.799Z,56.93
2023-02-16T08:21:21.736Z,56.59
2023-02-16T08:23:55.354Z,56.26
2023-02-16T08:26:25.669Z,56.35
2023-02-16T08:28:56.394Z,56.46
2023-02-16T08:31:28.410Z,56.35
2023-02-16T08:34:01.940Z,56.39
2023-02-16T08:36:33.885Z,55.95
2023-02-16T08:39:04.155Z,55.18
2023-02-16T08:41:35.538Z,54.91
2023-02-16T08:44:05.036Z,53.98
2023-02-16T08:46:35.717Z,54.25
2023-02-16T08:49:05.459Z,54.08
2023-02-16T08:51:37.240Z,53.62
2023-02-16T08:54:08.092Z,53.08
2023-02-16T08:56:36.889Z,53.26
2023-02-16T08:59:05.167Z,52.95
2023-02-16T09:01:33.287Z,52.81
2023-02-16T09:04:01.388Z,53.53
2023-02-16T09:06:30.814Z,52.87
2023-02-16T09:08:59.220Z,52.06
2023-02-16T09:11:27.264Z,52.13
2023-02-16T09:13:55.343Z,52.17
2023-02-16T09:16:27.944Z,51.74
2023-02-16T09:18:57.309Z,51.47
2023-02-16T09:21:26.889Z,51.21
2023-02-16T09:23:58.261Z,50.75
2023-02-16T09:26:29.219Z,51.17
2023-02-16T09:28:58.885Z,50.21
2023-02-16T09:31:30.871Z,50.06
2023-02-16T09:34:04.924Z,49.66
2023-02-16T09:36:33.721Z,50.28
2023-02-16T09:39:03.441Z,50.27
2023-02-16T09:41:51.796Z,49.47
2023-02-16T09:44:31.080Z,49.24
2023-02-16T09:47:03.758Z,49.83
2023-02-16T09:49:37.057Z,48.80
2023-02-16T09:52:17.553Z,48.67
2023-02-16T09:54:53.505Z,48.27
2023-02-16T09:57:42.042Z,49.01
2023-02-16T10:00:25.482Z,47.33
2023-02-16T10:03:00.368Z,47.38
2023-02-16T10:05:42.164Z,47.42
2023-02-16T10:08:16.555Z,46.93
2023-02-16T10:10:50.546Z,47.50
2023-02-16T10:13:28.144Z,47.06
2023-02-16T10:15:59.588Z,46.62
2023-02-16T10:18:34.306Z,46.79
2023-02-16T10:21:07.879Z,47.12
2023-02-16T10:23:47.727Z,47.47
2023-02-16T10:26:24.485Z,46.54
2023-02-16T10:28:56.473Z,46.66
2023-02-16T10:31:31.222Z,46.28
2023-02-16T10:34:23.187Z,46.12
2023-02-16T10:37:15.034Z,45.97
2023-02-16T10:39:51.881Z,46.10
2023-02-16T10:42:30.852Z,45.24
2023-02-16T10:45:09.981Z,45.33
2023-02-16T10:47:41.894Z,44.89
2023-02-16T10:50:22.821Z,45.14
2023-02-16T10:52:53.032Z,44.67
2023-02-16T10:55:21.062Z,44.99
2023-02-16T10:57:58.242Z,43.70
2023-02-16T11:00:49.615Z,43.78
2023-02-16T11:03:19.628Z,44.25
2023-02-16T11:05:47.779Z,44.05
2023-02-16T11:08:17.896Z,43.89
2023-02-16T11:10:50.828Z,43.90
2023-02-16T11:13:29.863Z,44.03
2023-02-16T11:16:02.552Z,44.48
2023-02-16T11:18:36.395Z,43.82
2023-02-16T11:21:07.426Z,43.35
2023-02-16T11:23:38.524Z,43.61
2023-02-16T11:26:22.415Z,42.81
2023-02-16T11:28:53.040Z,42.73
2023-02-16T11:31:33.541Z,42.66
2023-02-16T11:34:06.186Z,42.53
2023-02-16T11:36:39.121Z,42.12
2023-02-16T11:39:16.806Z,42.07
2023-02-16T11:41:47.116Z,41.99
2023-02-16T11:44:28.449Z,41.28
2023-02-16T11:46:57.474Z,41.01
2023-02-16T11:49:34.069Z,41.12
2023-02-16T11:52:18.285Z,42.07
2023-02-16T11:54:50.643Z,42.00
2023-02-16T11:57:26.901Z,41.94
2023-02-16T11:59:57.771Z,42.01
2023-02-16T12:03:11.563Z,40.98
2023-02-16T12:05:54.787Z,41.04
2023-02-16T12:08:36.779Z,40.58
2023-02-16T12:11:28.105Z,41.00
2023-02-16T12:14:22.327Z,41.99
2023-02-16T12:17:01.826Z,41.77
2023-02-16T12:19:40.924Z,41.84
2023-02-16T12:22:29.138Z,42.27
2023-02-16T12:25:19.754Z,42.48
2023-02-16T12:27:55.840Z,42.34
2023-02-16T12:30:46.220Z,41.33
2023-02-16T12:33:40.839Z,40.76
2023-02-16T12:36:29.737Z,40.98
2023-02-16T12:39:12.212Z,40.94
2023-02-16T12:41:54.781Z,40.98
2023-02-16T12:44:33.387Z,41.26
2023-02-16T12:47:05.365Z,40.60
2023-02-16T12:49:47.603Z,40.12
2023-02-16T12:52:33.921Z,40.74
2023-02-16T12:55:19.092Z,40.91
2023-02-16T12:57:57.998Z,41.74
2023-02-16T13:00:37.518Z,42.89
2023-02-16T13:03:24.993Z,42.49
2023-02-16T13:06:08.168Z,42.31
2023-02-16T13:08:44.888Z,41.49
2023-02-16T13:11:22.205Z,42.25
2023-02-16T13:13:53.403Z,42.67
2023-02-16T13:16:30.385Z,42.54
2023-02-16T13:18:59.725Z,42.46
2023-02-16T13:22:13.775Z,42.25
2023-02-16T13:24:56.737Z,42.20
2023-02-16T13:27:38.092Z,42.60
2023-02-16T13:30:45.817Z,42.20
2023-02-16T13:33:44.291Z,43.27
2023-02-16T13:36:43.299Z,42.92
2023-02-16T13:40:14.508Z,43.03
2023-02-16T13:43:20.924Z,42.69
2023-02-16T13:45:53.649Z,43.14
2023-02-16T13:48:29.696Z,42.43
2023-02-16T13:51:01.638Z,41.25
2023-02-16T13:53:37.713Z,40.47
2023-02-16T13:56:36.246Z,41.40
2023-02-16T13:59:59.567Z,41.05
2023-02-16T14:03:00.163Z,41.36
2023-02-16T14:05:36.651Z,41.49
2023-02-16T14:08:24.409Z,40.61
2023-02-16T14:11:11.949Z,41.06
2023-02-16T14:13:51.460Z,41.15
2023-02-16T14:16:34.417Z,41.31
2023-02-16T14:19:17.593Z,41.05
2023-02-16T14:21:48.122Z,41.59
2023-02-16T14:24:32.607Z,40.80
2023-02-16T14:27:03.999Z,41.32
2023-02-16T14:29:37.814Z,41.06
2023-02-16T14:32:23.331Z,41.12
2023-02-16T14:34:57.708Z,41.48
2023-02-16T14:37:39.213Z,41.74
2023-02-16T14:40:23.679Z,41.50
2023-02-16T14:42:57.159Z,41.31
2023-02-16T14:46:11.489Z,41.07
2023-02-16T14:49:39.885Z,41.69
2023-02-16T14:53:06.688Z,41.49
2023-02-16T14:56:02.994Z,41.70
2023-02-16T14:58:39.002Z,41.71
2023-02-16T15:01:14.722Z,41.64
2023-02-16T15:03:50.186Z,41.57
2023-02-16T15:06:31.709Z,41.52
2023-02-16T15:09:03.212Z,41.83
2023-02-16T15:11:35.761Z,41.71
2023-02-16T15:14:11.097Z,41.67
2023-02-16T15:16:42.087Z,41.70
2023-02-16T15:19:18.575Z,41.50
2023-02-16T15:21:47.950Z,41.74
2023-02-16T15:24:25.004Z,41.09
2023-02-16T15:27:01.501Z,41.03
2023-02-16T15:29:30.576Z,41.16
2023-02-16T15:32:01.016Z,41.35
2023-02-16T15:34:36.045Z,41.38
2023-02-16T15:37:29.409Z,41.45
2023-02-16T15:40:23.083Z,41.48
2023-02-16T15:42:46.226Z,41.72
2023-02-16T15:45:30.665Z,41.80
2023-02-16T15:48:15.317Z,41.95
2023-02-16T15:50:44.457Z,41.41
2023-02-16T15:53:16.521Z,41.59
2023-02-16T15:55:47.369Z,41.83
2023-02-16T15:58:16.985Z,41.88
2023-02-16T16:00:47.700Z,41.80
2023-02-16T16:03:18.303Z,42.05
2023-02-16T16:06:00.494Z,41.93
2023-02-16T16:08:31.719Z,42.27
2023-02-16T16:11:00.157Z,41.96
2023-02-16T16:13:31.663Z,42.34
2023-02-16T16:16:04.512Z,42.29
2023-02-16T16:18:44.372Z,41.95
2023-02-16T16:21:24.701Z,42.67
2023-02-16T16:24:04.165Z,42.31
2023-02-16T16:26:35.572Z,42.93
2023-02-16T16:29:05.415Z,42.80
2023-02-16T16:31:43.472Z,42.40
2023-02-16T16:34:33.364Z,42.63
2023-02-16T16:37:03.827Z,42.68
2023-02-16T16:39:36.687Z,42.78
2023-02-16T16:42:23.214Z,42.58
2023-02-16T16:44:59.440Z,42.96
2023-02-16T16:47:33.005Z,42.75
2023-02-16T16:50:05.728Z,43.38
2023-02-16T16:52:43.844Z,42.95
2023-02-16T16:55:37.111Z,42.96
2023-02-16T16:58:08.148Z,43.14
2023-02-16T17:00:40.461Z,43.77
2023-02-16T17:03:14.482Z,43.78
2023-02-16T17:05:43.915Z,43.52
2023-02-16T17:08:13.363Z,43.34
2023-02-16T17:10:43.577Z,43.40
2023-02-16T17:13:17.461Z,43.96
2023-02-16T17:15:52.592Z,43.57
2023-02-16T17:18:23.378Z,43.46
2023-02-16T17:20:53.456Z,43.52
2023-02-16T17:23:23.457Z,43.85
2023-02-16T17:25:53.935Z,43.99
2023-02-16T17:28:22.631Z,43.55
2023-02-16T17:30:50.653Z,44.29
2023-02-16T17:33:18.722Z,43.82
2023-02-16T17:35:46.836Z,43.88
2023-02-16T17:38:21.008Z,43.73
2023-02-16T17:40:50.695Z,44.41
2023-02-16T17:43:21.991Z,44.47
2023-02-16T17:45:50.982Z,44.61
2023-02-16T17:48:22.185Z,45.37
2023-02-16T17:50:51.502Z,45.13
2023-02-16T17:53:22.555Z,45.32
2023-02-16T17:55:55.606Z,45.57
2023-02-16T17:58:26.305Z,45.48
2023-02-16T18:00:54.909Z,45.85
2023-02-16T18:03:24.994Z,46.40
2023-02-16T18:05:53.851Z,46.31
2023-02-16T18:08:21.926Z,45.88
2023-02-16T18:10:53.483Z,46.13
2023-02-16T18:13:23.728Z,45.96
2023-02-16T18:15:52.411Z,45.79
2023-02-16T18:18:21.524Z,45.88
2023-02-16T18:20:50.085Z,45.83
2023-02-16T18:23:18.157Z,45.70
2023-02-16T18:25:46.268Z,46.07
2023-02-16T18:28:18.305Z,46.44
2023-02-16T18:30:49.233Z,46.79
2023-02-16T18:33:17.795Z,46.13
2023-02-16T18:35:45.851Z,45.91
2023-02-16T18:38:14.119Z,46.29
2023-02-16T18:43:37.282Z,46.09
2023-02-16T18:46:09.632Z,45.48
2023-02-16T18:48:43.127Z,45.85
2023-02-16T18:51:12.728Z,46.47
2023-02-16T18:53:41.436Z,46.00
2023-02-16T18:56:12.029Z,46.24
2023-02-16T18:58:40.108Z,46.00
2023-02-16T19:01:18.146Z,45.23
2023-02-16T19:03:46.234Z,45.19
2023-02-16T19:06:14.250Z,45.42
2023-02-16T19:08:42.338Z,45.00
2023-02-16T19:11:10.409Z,44.91
2023-02-16T19:13:38.526Z,44.88
2023-02-16T19:16:07.695Z,44.70
2023-02-16T19:18:37.314Z,45.02
2023-02-16T19:21:07.839Z,44.69
2023-02-16T19:23:37.580Z,44.41
2023-02-16T19:26:07.755Z,44.88
2023-02-16T19:28:36.139Z,44.99
2023-02-16T19:31:07.432Z,44.81
2023-02-16T19:33:37.782Z,45.00
2023-02-16T19:36:09.733Z,44.56
2023-02-16T19:38:38.162Z,45.30
2023-02-16T19:41:11.482Z,45.29
2023-02-16T19:43:39.635Z,44.87
2023-02-16T19:46:08.027Z,44.73
2023-02-16T19:48:37.847Z,45.49
2023-02-16T19:51:07.913Z,45.44
2023-02-16T19:53:38.287Z,44.83
2023-02-16T19:56:07.930Z,45.65
2023-02-16T19:58:36.650Z,45.10
2023-02-16T20:01:08.844Z,45.33
2023-02-16T20:03:38.638Z,45.95
2023-02-16T20:06:18.729Z,46.03
2023-02-16T20:08:48.605Z,46.16
2023-02-16T20:11:19.883Z,45.81
2023-02-16T20:13:48.664Z,46.56
2023-02-16T20:16:19.059Z,46.47
2023-02-16T20:18:49.440Z,46.62
2023-02-16T20:21:20.210Z,46.68
2023-02-16T20:23:51.221Z,47.85
2023-02-16T20:26:22.749Z,48.25
2023-02-16T20:28:51.365Z,49.02
2023-02-16T20:31:24.040Z,49.68
2023-02-16T20:33:54.063Z,48.91
2023-02-16T20:36:22.329Z,48.92
2023-02-16T20:38:51.679Z,48.63
2023-02-16T20:41:22.179Z,48.83
2023-02-16T20:43:51.319Z,48.33
2023-02-16T20:46:20.469Z,47.92
2023-02-16T20:48:49.980Z,47.41
2023-02-16T20:51:19.798Z,46.82
2023-02-16T20:53:48.544Z,47.31
2023-02-16T20:56:20.666Z,47.93
2023-02-16T20:58:51.764Z,47.98
2023-02-16T21:01:24.637Z,48.18
2023-02-16T21:03:55.393Z,47.21
2023-02-16T21:06:25.633Z,47.34
2023-02-16T21:08:53.939Z,47.03
2023-02-16T21:11:22.667Z,47.00
2023-02-16T21:13:51.663Z,47.58
2023-02-16T21:16:21.280Z,47.16
2023-02-16T21:18:49.421Z,47.19
2023-02-16T21:21:17.986Z,47.49
2023-02-16T21:23:50.600Z,47.15
2023-02-16T21:26:21.845Z,47.77
2023-02-16T21:28:50.647Z,48.13
2023-02-16T21:31:22.313Z,48.05
2023-02-16T21:33:50.633Z,47.62
2023-02-16T21:36:22.495Z,48.12
2023-02-16T21:38:52.106Z,48.18
2023-02-16T21:41:25.890Z,47.83
2023-02-16T21:43:57.847Z,48.19
2023-02-16T21:46:26.715Z,48.78
2023-02-16T21:48:55.194Z,48.41
2023-02-16T21:51:28.172Z,48.55
2023-02-16T21:53:58.733Z,48.48
2023-02-16T21:56:34.332Z,48.77
2023-02-16T21:59:03.561Z,48.38
2023-02-16T22:01:37.790Z,48.80
2023-02-16T22:04:06.919Z,48.92
2023-02-16T22:06:42.475Z,49.13
2023-02-16T22:09:15.186Z,48.78
2023-02-16T22:11:43.333Z,48.79
2023-02-16T22:14:11.988Z,48.42
2023-02-16T22:16:40.607Z,49.04
2023-02-16T22:19:12.838Z,49.14
2023-02-16T22:21:44.677Z,49.18
2023-02-16T22:24:16.939Z,49.03
2023-02-16T22:26:45.805Z,49.19
2023-02-16T22:29:14.043Z,48.96
2023-02-16T22:31:46.249Z,49.72
2023-02-16T22:34:17.079Z,49.81
2023-02-16T22:36:45.780Z,49.31
2023-02-16T22:39:19.859Z,49.79
2023-02-16T22:41:49.852Z,49.76
2023-02-16T22:44:17.893Z,49.91
2023-02-16T22:46:45.892Z,49.75
2023-02-16T22:49:13.966Z,49.99
2023-02-16T22:51:42.304Z,49.75
2023-02-16T22:54:14.234Z,49.47
2023-02-16T22:56:44.092Z,49.70
2023-02-16T22:59:13.477Z,49.52
2023-02-16T23:01:41.883Z,49.96
2023-02-16T23:04:15.600Z,50.66
2023-02-16T23:06:45.100Z,50.12
2023-02-16T23:09:16.333Z,49.90
2023-02-16T23:11:46.170Z,50.01
2023-02-16T23:14:17.201Z,50.50
2023-02-16T23:16:46.394Z,50.14
2023-02-16T23:19:18.217Z,50.33
2023-02-16T23:21:47.060Z,50.20
2023-02-16T23:24:18.143Z,50.50
2023-02-16T23:26:48.425Z,50.95
2023-02-16T23:29:16.813Z,50.35
2023-02-16T23:31:47.654Z,50.63
2023-02-16T23:34:17.202Z,50.45
2023-02-16T23:36:46.274Z,50.34
2023-02-16T23:39:17.844Z,50.66
2023-02-16T23:41:47.249Z,49.84
2023-02-16T23:44:15.808Z,50.24
2023-02-16T23:46:43.827Z,50.24
2023-02-16T23:49:11.955Z,49.74
2023-02-16T23:51:40.172Z,49.94
2023-02-16T23:54:10.847Z,50.25
2023-02-16T23:56:40.438Z,50.40
2023-02-16T23:59:09.851Z,50.10
